الصفحة الرئيسية
METAR-TAF:

METAR-TAF

مطار :

مطار مهرآباد الدولي

طهران, إيران

دائرة عرض: 35-41N, خط طول: 051-21E, ارتفاع: 1204 متر

مراقبة الطقس الحالي

تاريخ ووقت الإصدار 30 دقيقة قبل الساعة 02:30UTC
ريح 6 عقدة من الغرب
درجة الحرارة 21°درجة مئوية
الرطوبة 49%
ضغط 1012 hPa
الرؤية 10 كم أو أكثر
غيوم قليلة على ارتفاع 10000 قدم

METAR: OIII 080230Z 28006KT 9999 FEW100 21/10 Q1012 A2989

زمن: 07:30 (03:00 UTC)

توقعات

تاريخ ووقت الإصدار 4ساعات و 0 دقيقة قبل الساعة 23:00UTC
التوقعات صالحة من08 الساعة 00 UTC إلى 09 الساعة 06 UTC
ريح 8 عقدة من الغرب/الشمال الغربي
الرؤية: 8000 متر
غيوم قليلة على ارتفاع 3500 قدم
مؤقت
من 08 الساعة 08 UTC إلى 08 الساعة 12 UTC
غيوم قليلة على ارتفاع 3500 قدم, مزن ركامية عمودية.

TAF: OIII 072300Z 0800/0906 29008KT 8000 FEW035 TEMPO 0808/0812 FEW035TCU

أرصاد الطقس والتوقعات من أكثر من 4000 مطار (تقارير الطقس للمطار METAR والتنبؤ بالطقس بالمطارTAF).

المحطات المتاحة هي النقط الصفراء والحمراء على الخريطة.

حرك المؤشر فوق النقطة لمعرفة اسم المحطة.

ثم انقر لمعرفة أرصاد وتوقعات الطقس.

لتغيير الخارطة: اضغط على الأزرار الخضراء مع رمز الصليب الأسود للتكبير. على الزر الأخضر مع شرطة للتصغير، أو على الأسهم الخضراء للخرائط المجاورة.


METAR-TAF: